Time;durP1;ratioP1;P1;durP2;ratioP2;P2;SDS_P1;SDS_P2;PMS_P1;PMS_P2;Temp;Humidity;BMP_temperature;BMP_pressure;BME280_temperature;BME280_humidity;BME280_pressure;Samples;Min_cycle;Max_cycle;Signal;HPM_P1;HPM_P2
2021/10/30 00:01:06;;;;;;;33.30;27.77;;;7.30;99.90;;;;;;5076010;28;20984;-81
2021/10/30 00:03:33;;;;;;;39.38;28.33;;;7.20;99.90;;;;;;5076233;28;20861;-81
2021/10/30 00:05:59;;;;;;;33.42;27.25;;;7.30;99.90;;;;;;5076261;28;20708;-81
2021/10/30 00:08:29;;;;;;;37.67;28.08;;;7.30;99.90;;;;;;5063266;28;20221;-81
2021/10/30 00:10:55;;;;;;;35.72;29.02;;;7.30;99.90;;;;;;5076260;28;20192;-81
2021/10/30 00:13:22;;;;;;;36.43;27.57;;;7.20;99.90;;;;;;5076047;28;20216;-81
2021/10/30 00:15:48;;;;;;;37.13;28.90;;;7.20;99.90;;;;;;5075950;28;20499;-81
2021/10/30 00:18:16;;;;;;;41.70;28.70;;;7.20;99.90;;;;;;5076132;28;20539;-81
2021/10/30 00:20:43;;;;;;;41.60;28.20;;;7.10;99.90;;;;;;5075837;28;20216;-81
2021/10/30 00:23:10;;;;;;;38.97;27.60;;;7.10;99.90;;;;;;5075926;28;21033;-81
2021/10/30 00:25:36;;;;;;;33.13;26.20;;;7.10;99.90;;;;;;5075757;28;20236;-81
2021/10/30 00:28:03;;;;;;;31.40;27.07;;;7.00;99.90;;;;;;5075966;28;20447;-81
2021/10/30 00:30:29;;;;;;;33.20;27.00;;;7.20;99.90;;;;;;5076016;28;20539;-81
2021/10/30 00:32:56;;;;;;;36.75;29.30;;;7.00;99.90;;;;;;5075784;28;20934;-81
2021/10/30 00:35:24;;;;;;;30.77;26.88;;;6.90;99.90;;;;;;5075752;28;20209;-81
2021/10/30 00:37:50;;;;;;;41.53;29.20;;;6.90;99.90;;;;;;5075847;28;20224;-81
2021/10/30 00:40:17;;;;;;;41.53;30.70;;;6.90;99.90;;;;;;5081539;28;20486;-81
2021/10/30 00:42:44;;;;;;;36.75;29.00;;;6.80;99.90;;;;;;5075594;28;20242;-81
2021/10/30 00:45:10;;;;;;;38.08;27.48;;;6.90;99.90;;;;;;5075408;28;20225;-81
2021/10/30 00:47:37;;;;;;;33.55;27.20;;;6.80;99.90;;;;;;5075363;28;20216;-81
2021/10/30 00:50:05;;;;;;;39.60;29.20;;;6.80;99.90;;;;;;5075816;28;20186;-81
2021/10/30 00:52:35;;;;;;;36.85;28.40;;;6.80;99.90;;;;;;5075468;28;20189;-81
2021/10/30 00:55:03;;;;;;;34.08;26.92;;;6.90;99.90;;;;;;5075279;28;20276;-81
2021/10/30 00:57:31;;;;;;;31.60;26.13;;;6.80;99.90;;;;;;5075105;28;20209;-81
2021/10/30 00:59:58;;;;;;;30.92;27.40;;;6.80;99.90;;;;;;5075221;28;20471;-81
2021/10/30 01:02:25;;;;;;;38.10;27.97;;;6.80;99.90;;;;;;5074920;28;20284;-81
2021/10/30 01:04:52;;;;;;;35.40;27.27;;;6.80;99.90;;;;;;5075338;28;20467;-81
2021/10/30 01:07:22;;;;;;;36.88;28.40;;;6.80;99.90;;;;;;5068886;28;20551;-81
2021/10/30 01:09:52;;;;;;;32.80;26.33;;;6.80;99.90;;;;;;5068803;28;20556;-81
2021/10/30 01:12:19;;;;;;;41.08;28.02;;;6.70;99.90;;;;;;5074182;28;20186;-81
2021/10/30 01:14:47;;;;;;;35.47;28.23;;;6.70;99.90;;;;;;5074908;28;20227;-81
2021/10/30 01:17:13;;;;;;;33.97;27.98;;;6.70;99.90;;;;;;5074626;28;20248;-81
2021/10/30 01:19:40;;;;;;;37.08;28.67;;;6.70;99.90;;;;;;5075086;28;20220;-81
2021/10/30 01:22:08;;;;;;;37.97;30.42;;;6.70;99.90;;;;;;5074781;28;20194;-81
2021/10/30 01:24:35;;;;;;;32.25;27.50;;;6.70;99.90;;;;;;5074534;28;20209;-81
2021/10/30 01:27:01;;;;;;;39.28;28.58;;;6.80;99.90;;;;;;5074719;28;20189;-80
2021/10/30 01:29:29;;;;;;;33.80;27.70;;;6.80;99.90;;;;;;5074648;28;20251;-81
2021/10/30 01:31:56;;;;;;;37.70;28.20;;;6.80;99.90;;;;;;5074798;28;20192;-81
2021/10/30 01:34:28;;;;;;;34.97;28.52;;;6.80;99.90;;;;;;5074828;28;20538;-81
2021/10/30 01:36:55;;;;;;;38.80;28.07;;;6.80;99.90;;;;;;5074684;28;20209;-81
2021/10/30 01:39:24;;;;;;;35.00;28.77;;;6.70;99.90;;;;;;5074573;28;20470;-81
2021/10/30 01:41:52;;;;;;;32.70;26.70;;;6.70;99.90;;;;;;5074326;28;20448;-81
2021/10/30 01:44:18;;;;;;;35.35;29.35;;;6.60;99.90;;;;;;5074544;28;20217;-81
2021/10/30 01:46:45;;;;;;;36.25;28.23;;;6.70;99.90;;;;;;5074540;28;20243;-81
2021/10/30 01:49:11;;;;;;;33.15;26.73;;;6.60;99.90;;;;;;5074376;28;20216;-81
2021/10/30 01:51:38;;;;;;;35.70;27.07;;;6.70;99.90;;;;;;5074231;28;20239;-81
2021/10/30 01:54:05;;;;;;;39.28;29.08;;;6.70;99.90;;;;;;5074229;28;20525;-81
2021/10/30 01:56:32;;;;;;;31.15;26.95;;;6.70;99.90;;;;;;5073939;28;20679;-81
2021/10/30 01:58:59;;;;;;;34.53;26.67;;;6.70;99.90;;;;;;5074152;28;20688;-81
2021/10/30 02:01:25;;;;;;;31.17;26.10;;;6.60;99.90;;;;;;5073950;28;20220;-81
2021/10/30 02:03:52;;;;;;;36.40;27.58;;;6.70;99.90;;;;;;5074191;28;20479;-81
2021/10/30 02:06:19;;;;;;;31.17;27.13;;;6.70;99.90;;;;;;5073277;28;20221;-81
2021/10/30 02:08:45;;;;;;;37.40;28.20;;;6.70;99.90;;;;;;5072467;28;20228;-81
2021/10/30 02:11:12;;;;;;;37.30;27.63;;;6.70;99.90;;;;;;5073601;28;20474;-81
2021/10/30 02:13:42;;;;;;;37.75;25.75;;;6.70;99.90;;;;;;5073921;28;20444;-81
2021/10/30 02:16:10;;;;;;;33.70;26.17;;;6.70;99.90;;;;;;5073672;28;20216;-81
2021/10/30 02:18:37;;;;;;;38.73;28.90;;;6.70;99.90;;;;;;5073839;28;20208;-81
2021/10/30 02:21:03;;;;;;;32.25;26.75;;;6.60;99.90;;;;;;5073587;28;20447;-81
2021/10/30 02:23:30;;;;;;;34.43;25.93;;;6.60;99.90;;;;;;5073547;28;20196;-81
2021/10/30 02:25:57;;;;;;;34.13;25.53;;;6.60;99.90;;;;;;5073424;28;20479;-81
2021/10/30 02:28:23;;;;;;;31.73;26.25;;;6.60;99.90;;;;;;5073565;28;20458;-81
2021/10/30 02:30:51;;;;;;;33.85;26.17;;;6.60;99.90;;;;;;5073668;28;20252;-81
2021/10/30 02:33:18;;;;;;;37.72;28.08;;;6.60;99.90;;;;;;5073401;28;20211;-81
2021/10/30 02:35:44;;;;;;;34.92;27.58;;;6.60;99.90;;;;;;5073251;28;20185;-81
2021/10/30 02:38:11;;;;;;;33.85;26.30;;;6.60;99.90;;;;;;5073144;28;20224;-80
2021/10/30 02:40:38;;;;;;;38.28;27.02;;;6.60;99.90;;;;;;5073660;28;20189;-81
2021/10/30 02:43:04;;;;;;;32.20;26.95;;;6.60;99.90;;;;;;5072871;28;20667;-81
2021/10/30 02:45:31;;;;;;;34.22;27.15;;;6.70;99.90;;;;;;5073416;28;20213;-81
2021/10/30 02:47:59;;;;;;;37.47;26.73;;;6.60;99.90;;;;;;5073091;28;20185;-81
2021/10/30 02:50:25;;;;;;;34.47;26.95;;;6.70;99.90;;;;;;5073108;28;20221;-81
2021/10/30 02:52:52;;;;;;;38.10;26.40;;;6.60;99.90;;;;;;5073225;28;20242;-81
2021/10/30 02:55:18;;;;;;;33.40;27.30;;;6.70;99.90;;;;;;5073131;28;20439;-81
2021/10/30 02:57:49;;;;;;;38.70;26.70;;;6.80;99.90;;;;;;5072973;28;20308;-81
2021/10/30 03:00:16;;;;;;;30.97;25.67;;;6.70;99.90;;;;;;5073188;28;20505;-81
2021/10/30 03:02:43;;;;;;;32.70;26.25;;;6.80;99.90;;;;;;5072962;28;20502;-81
2021/10/30 03:05:12;;;;;;;36.70;28.67;;;6.80;99.90;;;;;;5072825;28;20185;-81
2021/10/30 03:07:38;;;;;;;30.55;25.52;;;6.80;99.90;;;;;;5069996;28;20456;-81
2021/10/30 03:10:06;;;;;;;33.30;26.33;;;6.80;99.90;;;;;;5073015;28;20235;-81
2021/10/30 03:12:33;;;;;;;36.42;27.77;;;6.90;99.90;;;;;;5072370;28;20221;-81
2021/10/30 03:14:59;;;;;;;30.67;25.77;;;6.90;99.90;;;;;;5072769;28;20182;-81
2021/10/30 03:17:26;;;;;;;33.78;26.23;;;6.90;99.90;;;;;;5072587;28;20472;-81
2021/10/30 03:19:52;;;;;;;30.63;25.00;;;6.90;99.90;;;;;;5072779;28;20217;-81
2021/10/30 03:22:20;;;;;;;33.70;26.20;;;6.90;99.90;;;;;;5072654;28;20506;-81
2021/10/30 03:24:47;;;;;;;34.30;27.87;;;6.90;99.90;;;;;;5072774;28;20216;-81
2021/10/30 03:27:13;;;;;;;33.53;25.98;;;6.90;99.90;;;;;;5072543;28;20494;-81
2021/10/30 03:29:40;;;;;;;30.40;25.30;;;6.90;99.90;;;;;;5072702;28;20181;-81
2021/10/30 03:32:07;;;;;;;30.80;24.70;;;6.90;99.90;;;;;;5072452;28;20483;-81
2021/10/30 03:34:34;;;;;;;32.90;25.83;;;6.90;99.90;;;;;;5072414;28;20938;-81
2021/10/30 03:37:00;;;;;;;30.58;25.08;;;6.90;99.90;;;;;;5072444;28;20475;-81
2021/10/30 03:39:28;;;;;;;30.70;24.40;;;6.90;99.90;;;;;;5072752;28;20235;-81
2021/10/30 03:41:55;;;;;;;36.03;26.30;;;6.90;99.90;;;;;;5072515;28;20534;-81
2021/10/30 03:44:21;;;;;;;30.37;25.03;;;6.90;99.90;;;;;;5064372;28;20664;-81
2021/10/30 03:46:48;;;;;;;28.73;24.73;;;6.80;99.90;;;;;;5072487;28;20451;-81
2021/10/30 03:49:14;;;;;;;32.63;25.30;;;6.80;99.90;;;;;;5072676;28;20447;-81
2021/10/30 03:51:41;;;;;;;30.42;25.55;;;6.80;99.90;;;;;;5072551;28;20547;-81
2021/10/30 03:54:08;;;;;;;29.77;25.20;;;6.80;99.90;;;;;;5072387;28;20221;-81
2021/10/30 03:56:35;;;;;;;30.77;25.57;;;6.80;99.90;;;;;;5072409;28;20248;-81
2021/10/30 03:59:02;;;;;;;31.73;24.75;;;6.80;99.90;;;;;;5072282;28;20706;-81
2021/10/30 04:01:29;;;;;;;31.50;25.33;;;6.80;99.90;;;;;;5072249;28;20181;-81
2021/10/30 04:03:56;;;;;;;34.92;24.95;;;6.80;99.90;;;;;;5072740;28;20531;-81
2021/10/30 04:06:22;;;;;;;33.30;26.23;;;6.80;99.90;;;;;;5072435;28;20193;-81
2021/10/30 04:08:49;;;;;;;29.13;24.42;;;6.80;99.90;;;;;;5069338;28;20501;-81
2021/10/30 04:11:15;;;;;;;39.10;23.77;;;6.70;99.90;;;;;;5072315;28;20239;-81
2021/10/30 04:13:43;;;;;;;31.30;24.58;;;6.70;99.90;;;;;;5072182;28;20478;-82
2021/10/30 04:16:10;;;;;;;34.97;25.92;;;6.70;99.90;;;;;;5071317;28;20197;-81
2021/10/30 04:18:36;;;;;;;29.13;24.13;;;6.70;99.90;;;;;;5069457;28;20240;-81
2021/10/30 04:21:03;;;;;;;33.23;25.27;;;6.90;99.90;;;;;;5070273;28;20193;-81
2021/10/30 04:23:30;;;;;;;31.10;24.95;;;6.70;99.90;;;;;;5070262;28;20451;-81
2021/10/30 04:25:56;;;;;;;32.63;25.60;;;6.70;99.90;;;;;;5071548;28;20275;-81
2021/10/30 04:28:23;;;;;;;29.53;23.90;;;6.70;99.90;;;;;;5071172;28;20193;-81
2021/10/30 04:30:51;;;;;;;30.93;24.53;;;6.70;99.90;;;;;;5069491;28;20785;-81
2021/10/30 04:33:18;;;;;;;30.20;25.03;;;6.70;99.90;;;;;;5070107;28;20509;-81
2021/10/30 04:35:47;;;;;;;29.67;24.55;;;6.70;99.90;;;;;;5070319;28;20448;-81
2021/10/30 04:38:13;;;;;;;29.03;24.90;;;6.70;99.90;;;;;;5069395;28;20221;-81
2021/10/30 04:40:40;;;;;;;32.08;24.95;;;6.70;99.90;;;;;;5072010;28;20506;-81
2021/10/30 04:43:07;;;;;;;29.23;23.87;;;6.70;99.90;;;;;;5070052;28;20640;-81
2021/10/30 04:45:34;;;;;;;34.33;23.85;;;6.60;99.90;;;;;;5071553;28;20536;-81
2021/10/30 04:48:02;;;;;;;31.00;23.45;;;6.60;99.90;;;;;;5074606;28;20189;-81
2021/10/30 04:50:28;;;;;;;30.33;24.53;;;6.60;99.90;;;;;;5074072;28;20193;-81
2021/10/30 04:52:55;;;;;;;28.03;24.13;;;6.60;99.90;;;;;;5075417;28;20508;-81
2021/10/30 04:55:21;;;;;;;36.20;25.37;;;6.60;99.90;;;;;;5075427;28;20482;-81
2021/10/30 04:57:48;;;;;;;30.20;24.00;;;6.60;99.90;;;;;;5075327;28;20525;-81
2021/10/30 05:00:15;;;;;;;32.80;24.80;;;6.60;99.90;;;;;;5075067;28;20946;-81
2021/10/30 05:02:42;;;;;;;27.50;23.10;;;6.60;99.90;;;;;;5075388;28;20854;-81
2021/10/30 05:05:10;;;;;;;29.33;23.98;;;6.60;99.90;;;;;;5075192;28;20444;-81
2021/10/30 05:07:36;;;;;;;31.63;24.50;;;6.50;99.90;;;;;;5078162;28;20211;-81
2021/10/30 05:10:04;;;;;;;29.33;24.45;;;6.50;99.90;;;;;;5075052;28;20272;-81
2021/10/30 05:12:30;;;;;;;33.17;23.37;;;6.50;99.90;;;;;;5075176;28;20189;-81
2021/10/30 05:14:57;;;;;;;31.43;24.27;;;6.50;99.90;;;;;;5075040;28;20942;-81
2021/10/30 05:17:23;;;;;;;33.60;25.67;;;6.50;99.90;;;;;;5075013;28;20471;-81
2021/10/30 05:19:50;;;;;;;33.35;24.33;;;6.50;99.90;;;;;;5075234;28;20487;-81
2021/10/30 05:22:18;;;;;;;39.97;25.80;;;6.50;99.90;;;;;;5075090;28;20280;-81
2021/10/30 05:24:44;;;;;;;33.17;23.48;;;6.40;99.90;;;;;;5074595;28;20280;-81
2021/10/30 05:27:11;;;;;;;31.02;22.88;;;6.40;99.90;;;;;;5074740;28;20725;-81
2021/10/30 05:29:37;;;;;;;30.92;24.40;;;6.40;99.90;;;;;;5074905;28;20262;-81
2021/10/30 05:32:05;;;;;;;27.67;22.52;;;6.40;99.90;;;;;;5074776;28;20244;-81
2021/10/30 05:34:31;;;;;;;29.70;23.80;;;6.40;99.90;;;;;;5074689;28;20185;-81
2021/10/30 05:36:58;;;;;;;35.45;24.70;;;6.40;99.90;;;;;;5074501;28;20249;-81
2021/10/30 05:39:26;;;;;;;29.10;22.92;;;6.30;99.90;;;;;;5074394;28;20181;-81
2021/10/30 05:41:52;;;;;;;28.30;22.10;;;6.30;99.90;;;;;;5074704;28;20280;-81
2021/10/30 05:44:19;;;;;;;29.83;23.90;;;6.30;99.90;;;;;;5074466;28;20866;-81
2021/10/30 05:46:46;;;;;;;30.13;23.33;;;6.30;99.90;;;;;;5074495;28;20440;-81
2021/10/30 05:49:14;;;;;;;31.43;24.57;;;6.30;99.90;;;;;;5074351;28;20193;-81
2021/10/30 05:51:41;;;;;;;30.20;23.80;;;6.30;99.90;;;;;;5074395;28;20493;-81
2021/10/30 05:54:08;;;;;;;29.70;25.08;;;6.30;99.90;;;;;;5074014;28;20189;-81
2021/10/30 05:56:36;;;;;;;29.43;22.80;;;6.30;99.90;;;;;;5073973;28;20272;-81
2021/10/30 05:59:06;;;;;;;30.42;25.38;;;6.30;99.90;;;;;;5074051;28;20511;-81
2021/10/30 06:01:33;;;;;;;32.78;24.88;;;6.30;99.90;;;;;;5074688;28;20264;-81
2021/10/30 06:04:00;;;;;;;29.02;23.67;;;6.30;99.90;;;;;;5073967;28;20553;-81
2021/10/30 06:06:26;;;;;;;30.40;24.45;;;6.30;99.90;;;;;;5073878;28;20181;-81
2021/10/30 06:08:53;;;;;;;31.42;24.63;;;6.30;99.90;;;;;;5069808;28;20247;-81
2021/10/30 06:11:20;;;;;;;34.05;25.60;;;6.30;99.90;;;;;;5073057;28;20197;-81
2021/10/30 06:13:48;;;;;;;32.10;24.73;;;6.30;99.90;;;;;;5057482;28;20185;-81
2021/10/30 06:16:15;;;;;;;33.85;25.95;;;6.30;99.90;;;;;;5073980;28;20447;-81
2021/10/30 06:18:42;;;;;;;35.63;24.60;;;6.30;99.90;;;;;;5073634;28;20220;-81
2021/10/30 06:21:08;;;;;;;29.88;23.75;;;6.30;99.90;;;;;;5073774;28;20837;-81
2021/10/30 06:23:36;;;;;;;32.30;22.90;;;6.40;99.90;;;;;;5073707;28;20208;-81
2021/10/30 06:26:03;;;;;;;27.13;22.45;;;6.40;99.90;;;;;;5073347;28;20475;-81
2021/10/30 06:28:29;;;;;;;32.13;23.67;;;6.30;99.90;;;;;;5071573;28;20193;-81
2021/10/30 06:30:57;;;;;;;31.30;24.27;;;6.40;99.90;;;;;;5073609;28;20444;-81
2021/10/30 06:33:24;;;;;;;26.20;22.70;;;6.40;99.90;;;;;;5073351;28;20276;-81
2021/10/30 06:35:50;;;;;;;30.00;24.10;;;6.40;99.90;;;;;;5073589;28;20477;-81
2021/10/30 06:38:17;;;;;;;27.67;23.47;;;6.50;99.90;;;;;;5073288;28;20590;-81
2021/10/30 06:40:46;;;;;;;30.33;25.20;;;6.50;99.90;;;;;;5073335;28;20450;-81
2021/10/30 06:43:13;;;;;;;25.90;22.00;;;6.50;99.90;;;;;;5073367;28;20232;-81
2021/10/30 06:45:39;;;;;;;28.05;23.00;;;6.60;99.90;;;;;;5073186;28;20497;-81
2021/10/30 06:48:08;;;;;;;28.10;22.40;;;6.60;99.90;;;;;;5073220;28;20276;-81
2021/10/30 06:50:34;;;;;;;30.88;24.08;;;6.70;99.90;;;;;;5073189;28;20340;-81
2021/10/30 06:53:01;;;;;;;30.92;22.50;;;6.80;99.90;;;;;;5073373;28;20181;-81
2021/10/30 06:55:28;;;;;;;27.60;21.15;;;6.80;99.90;;;;;;5072957;28;20186;-81
2021/10/30 06:57:54;;;;;;;26.75;22.70;;;6.90;99.90;;;;;;5073075;28;20258;-81
2021/10/30 07:00:21;;;;;;;25.83;20.10;;;7.00;99.90;;;;;;5073042;28;20213;-81
2021/10/30 07:02:51;;;;;;;28.95;23.48;;;7.10;99.90;;;;;;5072760;28;20451;-81
2021/10/30 07:05:20;;;;;;;27.23;21.45;;;7.20;99.90;;;;;;5072840;28;20197;-81
2021/10/30 07:07:47;;;;;;;30.20;23.50;;;7.30;99.90;;;;;;5057408;28;20711;-81
2021/10/30 07:10:14;;;;;;;26.03;21.97;;;7.30;99.90;;;;;;5070630;28;20487;-81
2021/10/30 07:12:40;;;;;;;27.63;21.90;;;7.40;99.90;;;;;;5071253;28;20455;-81
2021/10/30 07:15:09;;;;;;;28.40;20.50;;;7.40;99.90;;;;;;5070910;28;20706;-81
2021/10/30 07:17:35;;;;;;;27.57;21.13;;;7.50;99.90;;;;;;5070839;28;20525;-81
2021/10/30 07:20:03;;;;;;;28.13;21.40;;;7.50;99.90;;;;;;5071200;28;20456;-80
2021/10/30 07:22:31;;;;;;;27.53;21.97;;;7.50;99.90;;;;;;5070803;28;20455;-81
2021/10/30 07:24:58;;;;;;;26.83;20.57;;;7.50;99.90;;;;;;5070901;28;20503;-81
2021/10/30 07:27:24;;;;;;;25.40;21.73;;;7.60;99.90;;;;;;5072350;28;20463;-81
2021/10/30 07:29:52;;;;;;;25.60;20.30;;;7.70;99.90;;;;;;5072669;28;20432;-80
2021/10/30 07:32:19;;;;;;;24.50;20.50;;;7.70;99.90;;;;;;5072814;28;20447;-80
2021/10/30 07:34:46;;;;;;;24.47;20.97;;;7.70;99.90;;;;;;5072616;28;20448;-80
2021/10/30 07:37:12;;;;;;;27.60;20.70;;;7.80;99.90;;;;;;5072507;28;20509;-80
2021/10/30 07:39:40;;;;;;;26.20;20.80;;;7.80;99.90;;;;;;5072508;28;20436;-80
2021/10/30 07:42:08;;;;;;;29.23;21.83;;;7.80;99.90;;;;;;5072316;28;20474;-80
2021/10/30 07:44:36;;;;;;;25.37;19.83;;;7.90;99.90;;;;;;5072405;28;20952;-80
2021/10/30 07:47:03;;;;;;;26.17;21.03;;;8.00;99.90;;;;;;5072663;28;20447;-80
2021/10/30 07:49:32;;;;;;;26.23;20.23;;;8.00;99.90;;;;;;5072310;28;20501;-81
2021/10/30 07:51:58;;;;;;;24.57;19.57;;;8.10;99.90;;;;;;5072562;28;20831;-80
2021/10/30 07:54:25;;;;;;;22.80;19.93;;;8.10;99.90;;;;;;5072494;28;20450;-80
2021/10/30 07:56:53;;;;;;;25.13;21.13;;;8.10;99.90;;;;;;5072235;28;20493;-80
2021/10/30 07:59:19;;;;;;;28.67;21.33;;;8.20;99.90;;;;;;5072621;28;20475;-80
2021/10/30 08:01:46;;;;;;;26.73;21.37;;;8.30;99.90;;;;;;5056056;28;20473;-80
2021/10/30 08:04:13;;;;;;;26.27;20.80;;;8.30;99.90;;;;;;5072425;28;20458;-80
2021/10/30 08:06:39;;;;;;;27.33;20.50;;;8.30;99.90;;;;;;5071566;28;20447;-80
2021/10/30 08:09:06;;;;;;;29.27;21.23;;;8.30;99.90;;;;;;5066969;28;20444;-80
2021/10/30 08:11:33;;;;;;;23.57;19.40;;;8.50;99.90;;;;;;5072065;28;20493;-80
2021/10/30 08:14:02;;;;;;;22.80;19.30;;;8.50;99.90;;;;;;5072433;28;20482;-80
2021/10/30 08:16:28;;;;;;;23.70;19.70;;;8.50;99.90;;;;;;5072383;28;20447;-80
2021/10/30 08:18:55;;;;;;;23.50;20.27;;;8.60;99.90;;;;;;5072409;28;20502;-80
2021/10/30 08:21:22;;;;;;;25.53;19.23;;;8.70;99.90;;;;;;5075830;28;20889;-80
2021/10/30 08:23:50;;;;;;;25.47;18.77;;;8.70;99.90;;;;;;5076645;28;20505;-80
2021/10/30 08:26:16;;;;;;;21.67;19.10;;;8.70;99.90;;;;;;5073852;28;20480;-81
2021/10/30 08:28:44;;;;;;;22.30;19.73;;;8.80;99.90;;;;;;5070691;28;20451;-80
2021/10/30 08:31:12;;;;;;;27.53;23.20;;;8.80;99.90;;;;;;5076350;28;20455;-80
2021/10/30 08:33:39;;;;;;;23.80;20.70;;;8.90;99.90;;;;;;5075761;28;20470;-81
2021/10/30 08:36:06;;;;;;;21.40;18.10;;;8.90;99.90;;;;;;5075780;28;20853;-81
2021/10/30 08:38:33;;;;;;;21.90;18.30;;;9.00;99.90;;;;;;5075082;28;20966;-81
2021/10/30 08:41:01;;;;;;;23.03;18.20;;;9.10;99.90;;;;;;5075894;28;20504;-81
2021/10/30 08:43:28;;;;;;;23.07;19.73;;;9.10;99.90;;;;;;5075412;28;20508;-81
2021/10/30 08:45:57;;;;;;;22.63;18.77;;;9.20;99.90;;;;;;5073726;28;20435;-81
2021/10/30 08:48:28;;;;;;;26.40;19.13;;;9.20;99.90;;;;;;5074115;28;20508;-81
2021/10/30 08:50:55;;;;;;;21.47;18.83;;;9.30;99.90;;;;;;5075214;28;20490;-83
2021/10/30 08:53:24;;;;;;;26.87;18.90;;;9.30;99.90;;;;;;5075535;28;20448;-82
2021/10/30 08:55:51;;;;;;;19.97;17.97;;;9.30;99.90;;;;;;5075436;28;20542;-82
2021/10/30 08:58:20;;;;;;;22.70;18.50;;;9.50;99.90;;;;;;5075400;28;20550;-82
2021/10/30 09:00:49;;;;;;;23.33;18.43;;;9.40;99.90;;;;;;5075403;28;20459;-82
2021/10/30 09:03:18;;;;;;;23.40;17.87;;;9.50;99.90;;;;;;5075184;28;20439;-83
2021/10/30 09:05:48;;;;;;;24.50;18.53;;;9.50;99.90;;;;;;5058572;28;20443;-82
2021/10/30 09:08:21;;;;;;;19.93;17.27;;;9.60;99.90;;;;;;5075486;28;20443;-82
2021/10/30 09:10:50;;;;;;;20.27;16.90;;;9.70;99.90;;;;;;5075199;28;20443;-82
2021/10/30 09:13:20;;;;;;;22.53;17.90;;;9.70;99.90;;;;;;5075095;28;20878;-82
2021/10/30 09:15:49;;;;;;;18.83;16.27;;;9.80;99.90;;;;;;5065756;28;20448;-81
2021/10/30 09:18:22;;;;;;;21.73;17.27;;;9.80;99.90;;;;;;5074729;28;20471;-82
2021/10/30 09:20:51;;;;;;;24.47;17.73;;;9.80;99.90;;;;;;5075057;28;20455;-81
2021/10/30 09:23:19;;;;;;;20.23;15.93;;;9.90;99.90;;;;;;5073057;28;20811;-82
2021/10/30 09:25:58;;;;;;;19.53;17.13;;;9.90;99.90;;;;;;5058269;28;20475;-81
2021/10/30 09:28:30;;;;;;;18.73;16.73;;;9.90;99.90;;;;;;5074715;28;20459;-81
2021/10/30 09:30:58;;;;;;;21.63;16.97;;;10.00;99.90;;;;;;5074805;28;20492;-82
2021/10/30 09:33:26;;;;;;;23.20;17.07;;;10.00;99.90;;;;;;5074278;28;20447;-82
2021/10/30 09:36:07;;;;;;;21.07;16.70;;;10.00;99.90;;;;;;5073452;28;20454;-82
2021/10/30 09:38:36;;;;;;;18.27;16.30;;;10.10;99.90;;;;;;5072209;28;20974;-82
2021/10/30 09:41:05;;;;;;;19.00;17.10;;;10.10;99.90;;;;;;5073649;28;20505;-82
2021/10/30 09:43:32;;;;;;;18.70;16.00;;;10.10;99.90;;;;;;5074249;28;20505;-82
2021/10/30 09:46:05;;;;;;;20.37;17.57;;;10.20;99.90;;;;;;5074242;28;20954;-82
2021/10/30 09:48:33;;;;;;;25.07;15.27;;;10.20;99.90;;;;;;5072081;28;20539;-82
2021/10/30 09:51:02;;;;;;;16.73;14.97;;;10.20;99.90;;;;;;5073966;28;20447;-82
2021/10/30 09:53:34;;;;;;;17.53;15.67;;;10.20;99.90;;;;;;5074024;28;20527;-82
2021/10/30 09:56:05;;;;;;;18.07;15.90;;;10.20;99.90;;;;;;5074073;28;20460;-82
2021/10/30 09:58:39;;;;;;;19.10;15.93;;;10.30;99.90;;;;;;5071868;28;20542;-82
2021/10/30 10:01:09;;;;;;;19.60;15.50;;;10.40;99.90;;;;;;5073953;28;20451;-82
2021/10/30 10:03:36;;;;;;;18.93;16.97;;;10.40;99.90;;;;;;5073829;28;20496;-82
2021/10/30 10:06:07;;;;;;;22.63;16.80;;;10.40;99.90;;;;;;5073966;28;20435;-82
2021/10/30 10:08:37;;;;;;;22.20;16.00;;;10.60;99.90;;;;;;5073699;28;20552;-82
2021/10/30 10:11:04;;;;;;;19.80;16.00;;;10.50;99.90;;;;;;5073907;28;20444;-82
2021/10/30 10:13:31;;;;;;;17.73;15.90;;;10.60;99.90;;;;;;5073714;28;20862;-82
2021/10/30 10:15:59;;;;;;;22.43;14.67;;;10.60;99.90;;;;;;5071969;28;20435;-82
2021/10/30 10:18:27;;;;;;;18.70;13.83;;;10.70;99.90;;;;;;5073497;28;21017;-82
2021/10/30 10:20:54;;;;;;;19.30;16.50;;;10.70;99.90;;;;;;5073775;28;20873;-82
2021/10/30 10:23:22;;;;;;;17.20;15.40;;;10.70;99.90;;;;;;5060392;28;20496;-82
2021/10/30 10:25:53;;;;;;;17.70;14.57;;;10.70;99.90;;;;;;5073287;28;20463;-82
2021/10/30 10:28:27;;;;;;;19.50;16.20;;;10.80;99.90;;;;;;5083603;28;20802;-82
2021/10/30 10:30:59;;;;;;;16.80;15.00;;;10.70;99.90;;;;;;5075019;28;20530;-82
2021/10/30 10:33:27;;;;;;;16.90;15.10;;;10.80;99.90;;;;;;5057087;28;20849;-82
2021/10/30 10:36:19;;;;;;;16.40;14.67;;;10.80;99.90;;;;;;5073628;28;20772;-82
2021/10/30 10:39:19;;;;;;;18.07;14.73;;;10.80;99.90;;;;;;5073235;28;20533;-82
2021/10/30 10:41:52;;;;;;;22.30;15.63;;;10.90;99.90;;;;;;5059901;28;20483;-83
2021/10/30 10:44:51;;;;;;;16.87;15.17;;;10.90;99.90;;;;;;5072147;28;20818;-83
2021/10/30 10:47:53;;;;;;;15.93;14.30;;;10.90;99.90;;;;;;5072906;28;20447;-82
2021/10/30 10:50:23;;;;;;;16.60;14.80;;;10.90;99.90;;;;;;5070763;28;20860;-82
2021/10/30 10:53:27;;;;;;;16.20;14.50;;;10.90;99.90;;;;;;5073031;28;20451;-82
2021/10/30 10:56:17;;;;;;;18.07;14.60;;;11.10;99.90;;;;;;5060665;28;21019;-82
2021/10/30 10:59:10;;;;;;;19.33;16.47;;;11.10;99.90;;;;;;5073076;28;20474;-82
2021/10/30 11:02:18;;;;;;;27.27;20.60;;;11.20;99.90;;;;;;5058366;28;20443;-82
2021/10/30 11:05:27;;;;;;;19.13;14.90;;;11.20;99.90;;;;;;5073388;28;20454;-82
2021/10/30 11:08:22;;;;;;;18.80;16.40;;;11.20;99.90;;;;;;5049846;28;20475;-82
2021/10/30 11:10:49;;;;;;;16.60;13.90;;;11.30;99.90;;;;;;5072851;28;20444;-82
2021/10/30 11:13:21;;;;;;;17.20;14.60;;;11.30;99.90;;;;;;5072707;28;20849;-83
2021/10/30 11:15:52;;;;;;;16.20;14.60;;;11.30;99.90;;;;;;5072778;28;20447;-82
2021/10/30 11:18:28;;;;;;;16.23;14.53;;;11.40;99.90;;;;;;5072525;28;20947;-82
2021/10/30 11:21:13;;;;;;;18.10;14.83;;;11.50;99.90;;;;;;5072828;28;20443;-83
2021/10/30 11:23:45;;;;;;;16.70;13.90;;;11.60;99.90;;;;;;5058577;28;20447;-82
2021/10/30 11:26:18;;;;;;;20.40;15.97;;;11.60;99.90;;;;;;5073066;28;20483;-82
2021/10/30 11:28:46;;;;;;;16.17;13.50;;;11.60;99.90;;;;;;5072591;28;20513;-82
2021/10/30 11:31:14;;;;;;;17.47;15.00;;;11.70;99.90;;;;;;5072839;28;21025;-82
2021/10/30 11:33:41;;;;;;;19.50;15.30;;;11.70;99.90;;;;;;5072151;28;20490;-82
2021/10/30 11:36:11;;;;;;;17.80;15.00;;;11.70;99.90;;;;;;5072473;28;20486;-82
2021/10/30 11:38:40;;;;;;;22.10;17.37;;;11.80;99.90;;;;;;5072754;28;20554;-82
2021/10/30 11:41:10;;;;;;;16.43;14.27;;;11.80;99.90;;;;;;5072638;28;20475;-82
2021/10/30 11:43:38;;;;;;;18.30;15.53;;;11.90;99.90;;;;;;5072442;28;20939;-82
2021/10/30 11:46:08;;;;;;;18.53;14.60;;;11.80;99.90;;;;;;5072353;28;20482;-83
2021/10/30 11:48:40;;;;;;;17.37;14.60;;;11.90;99.90;;;;;;5072583;28;20494;-82
2021/10/30 11:51:08;;;;;;;18.53;16.70;;;11.90;99.90;;;;;;5072686;28;20520;-82
2021/10/30 11:53:37;;;;;;;19.07;15.40;;;11.90;99.90;;;;;;5072262;28;20950;-82
2021/10/30 11:56:09;;;;;;;18.27;14.00;;;12.00;99.90;;;;;;5075306;28;20479;-83
2021/10/30 11:58:41;;;;;;;20.40;15.63;;;12.00;99.90;;;;;;5076723;28;20446;-83
2021/10/30 12:01:26;;;;;;;17.40;14.97;;;12.00;99.90;;;;;;5077141;28;20857;-82
2021/10/30 12:03:56;;;;;;;18.73;16.73;;;11.90;99.90;;;;;;5076783;28;20479;-82
2021/10/30 12:06:24;;;;;;;20.07;15.63;;;12.00;99.90;;;;;;5088072;28;20949;-82
2021/10/30 12:08:51;;;;;;;18.30;15.67;;;12.10;99.90;;;;;;5081198;28;20443;-82
2021/10/30 12:11:19;;;;;;;17.70;15.50;;;12.10;99.90;;;;;;5076662;28;20450;-82
2021/10/30 12:13:47;;;;;;;15.07;13.47;;;12.10;99.90;;;;;;5076209;28;20451;-82
2021/10/30 12:16:14;;;;;;;16.27;14.40;;;12.10;99.90;;;;;;5076599;28;20549;-83
2021/10/30 12:18:43;;;;;;;15.47;13.87;;;12.20;99.90;;;;;;5076316;28;20501;-82
2021/10/30 12:21:14;;;;;;;15.30;13.30;;;12.20;99.90;;;;;;5076482;28;20451;-82
2021/10/30 12:24:01;;;;;;;15.80;14.23;;;12.30;99.90;;;;;;5076319;28;20856;-82
2021/10/30 12:26:29;;;;;;;17.43;14.40;;;12.30;99.90;;;;;;5075948;28;20502;-82
2021/10/30 12:29:11;;;;;;;15.47;13.77;;;12.20;99.90;;;;;;5076272;28;20481;-82
2021/10/30 12:31:38;;;;;;;13.90;12.20;;;12.30;99.90;;;;;;5072828;28;20934;-82
2021/10/30 12:34:13;;;;;;;14.37;12.87;;;12.40;99.90;;;;;;5076119;28;20443;-82
2021/10/30 12:36:40;;;;;;;23.00;16.73;;;12.40;99.90;;;;;;5076633;28;20454;-82
2021/10/30 12:39:18;;;;;;;21.43;18.03;;;12.40;99.90;;;;;;5075690;28;20450;-82
2021/10/30 12:41:45;;;;;;;17.07;14.33;;;12.40;99.90;;;;;;5076405;28;20480;-82